createdAt,value
2019-05-29T00:00:38.035Z,99.90
2019-05-29T00:03:08.285Z,99.90
2019-05-29T00:05:37.396Z,99.90
2019-05-29T00:08:06.513Z,99.90
2019-05-29T00:10:35.691Z,99.90
2019-05-29T00:13:06.119Z,99.90
2019-05-29T00:15:35.230Z,99.90
2019-05-29T00:18:04.499Z,99.90
2019-05-29T00:20:33.527Z,99.90
2019-05-29T00:23:02.486Z,99.90
2019-05-29T00:25:31.469Z,99.90
2019-05-29T00:28:00.966Z,99.90
2019-05-29T00:30:29.915Z,99.90
2019-05-29T00:32:58.935Z,99.90
2019-05-29T00:35:27.881Z,99.90
2019-05-29T00:37:56.844Z,99.90
2019-05-29T00:40:25.862Z,99.90
2019-05-29T00:42:55.103Z,99.90
2019-05-29T00:45:24.492Z,99.90
2019-05-29T00:47:53.703Z,99.90
2019-05-29T00:50:23.023Z,99.90
2019-05-29T00:52:52.259Z,99.90
2019-05-29T00:55:21.323Z,99.90
2019-05-29T00:57:50.296Z,99.90
2019-05-29T01:00:19.682Z,99.90
2019-05-29T01:02:48.795Z,99.90
2019-05-29T01:05:18.213Z,99.90
2019-05-29T01:07:47.483Z,99.90
2019-05-29T01:10:17.288Z,99.90
2019-05-29T01:12:46.332Z,99.90
2019-05-29T01:15:17.419Z,99.90
2019-05-29T01:17:46.527Z,99.90
2019-05-29T01:20:16.484Z,99.90
2019-05-29T01:22:45.811Z,99.90
2019-05-29T01:25:14.922Z,99.90
2019-05-29T01:27:43.922Z,99.90
2019-05-29T01:30:13.422Z,99.90
2019-05-29T01:32:42.512Z,99.90
2019-05-29T01:35:11.704Z,99.90
2019-05-29T01:37:40.732Z,99.90
2019-05-29T01:40:19.340Z,99.90
2019-05-29T01:42:40.627Z,99.90
2019-05-29T01:45:10.182Z,99.90
2019-05-29T01:47:39.110Z,99.90
2019-05-29T01:50:08.350Z,99.90
2019-05-29T01:52:37.271Z,99.90
2019-05-29T01:55:06.772Z,99.90
2019-05-29T01:57:35.712Z,99.90
2019-05-29T02:00:05.387Z,99.90
2019-05-29T02:02:34.395Z,99.90
2019-05-29T02:05:03.591Z,99.90
2019-05-29T02:07:32.533Z,99.90
2019-05-29T02:10:01.581Z,99.90
2019-05-29T02:12:30.591Z,99.90
2019-05-29T02:14:59.591Z,99.90
2019-05-29T02:17:28.534Z,99.90
2019-05-29T02:19:57.795Z,99.90
2019-05-29T02:22:27.157Z,99.90
2019-05-29T02:24:56.111Z,99.90
2019-05-29T02:27:25.609Z,99.90
2019-05-29T02:29:54.560Z,99.90
2019-05-29T02:32:23.675Z,99.90
2019-05-29T02:34:52.640Z,99.90
2019-05-29T02:37:22.264Z,99.90
2019-05-29T02:39:51.273Z,99.90
2019-05-29T02:42:20.982Z,99.90
2019-05-29T02:44:50.553Z,99.90
2019-05-29T02:47:21.561Z,99.90
2019-05-29T02:49:50.586Z,99.90
2019-05-29T02:52:20.099Z,99.90
2019-05-29T02:54:49.194Z,99.90
2019-05-29T02:57:18.200Z,99.90
2019-05-29T02:59:47.228Z,99.90
2019-05-29T03:02:16.156Z,99.90
2019-05-29T03:04:45.215Z,99.90
2019-05-29T03:07:14.284Z,99.90
2019-05-29T03:09:43.510Z,99.90
2019-05-29T03:12:12.431Z,99.90
2019-05-29T03:14:41.700Z,99.90
2019-05-29T03:17:10.717Z,99.90
2019-05-29T03:19:39.751Z,99.90
2019-05-29T03:22:08.862Z,99.90
2019-05-29T03:24:37.824Z,99.90
2019-05-29T03:27:06.831Z,99.90
2019-05-29T03:29:35.752Z,99.90
2019-05-29T03:32:04.834Z,99.90
2019-05-29T03:34:39.402Z,99.90
2019-05-29T03:37:04.711Z,99.90
2019-05-29T03:39:34.597Z,99.90
2019-05-29T03:42:03.830Z,99.90
2019-05-29T03:44:33.666Z,99.90
2019-05-29T03:47:03.468Z,99.90
2019-05-29T03:49:33.158Z,99.90
2019-05-29T03:52:02.562Z,99.90
2019-05-29T03:54:33.767Z,99.90
2019-05-29T03:57:02.174Z,99.90
2019-05-29T03:59:32.556Z,99.90
2019-05-29T04:02:01.640Z,99.90
2019-05-29T04:04:31.336Z,99.90
2019-05-29T04:07:01.103Z,99.90
2019-05-29T04:09:31.305Z,99.90
2019-05-29T04:12:00.302Z,99.90
2019-05-29T04:14:29.772Z,99.90
2019-05-29T04:17:00.797Z,99.90
2019-05-29T04:19:32.587Z,99.90
2019-05-29T04:22:07.530Z,99.90
2019-05-29T04:24:39.605Z,99.90
2019-05-29T04:27:12.416Z,99.90
2019-05-29T04:29:42.862Z,99.90
2019-05-29T04:32:12.578Z,99.90
2019-05-29T04:34:41.540Z,99.90
2019-05-29T04:37:10.489Z,99.90
2019-05-29T04:39:39.526Z,99.90
2019-05-29T04:42:08.731Z,99.90
2019-05-29T04:44:38.879Z,99.90
2019-05-29T04:47:11.454Z,99.90
2019-05-29T04:49:39.879Z,99.90
2019-05-29T04:52:09.113Z,99.90
2019-05-29T04:54:40.029Z,99.90
2019-05-29T04:57:08.993Z,99.90
2019-05-29T04:59:39.176Z,99.90
2019-05-29T05:02:08.460Z,99.90
2019-05-29T05:04:37.676Z,99.90
2019-05-29T05:07:06.802Z,99.90
2019-05-29T05:09:35.737Z,99.90
2019-05-29T05:12:04.867Z,99.90
2019-05-29T05:14:33.979Z,99.90
2019-05-29T05:17:02.932Z,99.90
2019-05-29T05:19:31.876Z,99.90
2019-05-29T05:22:00.907Z,99.90
2019-05-29T05:24:30.183Z,99.90
2019-05-29T05:26:59.086Z,99.90
2019-05-29T05:29:28.042Z,99.90
2019-05-29T05:31:57.200Z,99.90
2019-05-29T05:34:26.467Z,99.90
2019-05-29T05:36:55.686Z,99.90
2019-05-29T05:39:24.658Z,99.90
2019-05-29T05:41:53.720Z,99.90
2019-05-29T05:44:22.786Z,99.90
2019-05-29T05:46:52.084Z,99.90
2019-05-29T05:49:21.287Z,99.90
2019-05-29T05:51:50.280Z,99.90
2019-05-29T05:54:19.360Z,99.90
2019-05-29T05:56:48.345Z,99.90
2019-05-29T05:59:17.370Z,99.90
2019-05-29T06:01:46.425Z,99.90
2019-05-29T06:04:15.505Z,99.90
2019-05-29T06:06:44.765Z,99.90
2019-05-29T06:09:13.714Z,99.90
2019-05-29T06:11:42.763Z,99.90
2019-05-29T06:14:11.849Z,99.90
2019-05-29T06:17:06.171Z,99.90
2019-05-29T06:19:36.678Z,99.90
2019-05-29T06:22:05.999Z,99.90
2019-05-29T06:24:37.363Z,99.90
2019-05-29T06:27:06.364Z,99.90
2019-05-29T06:29:35.640Z,99.90
2019-05-29T06:32:05.108Z,99.90
2019-05-29T06:34:35.569Z,99.50
2019-05-29T06:37:04.851Z,99.80
2019-05-29T06:39:33.882Z,99.70
2019-05-29T06:42:03.016Z,99.90
2019-05-29T06:44:32.192Z,99.90
2019-05-29T06:47:01.611Z,99.90
2019-05-29T06:49:31.039Z,99.90
2019-05-29T06:52:00.075Z,99.90
2019-05-29T06:54:29.040Z,99.90
2019-05-29T06:56:58.042Z,98.60
2019-05-29T06:59:27.030Z,99.90
2019-05-29T07:01:55.967Z,97.80
2019-05-29T07:04:25.096Z,97.90
2019-05-29T07:06:54.109Z,94.90
2019-05-29T07:09:23.065Z,93.60
2019-05-29T07:11:52.027Z,94.40
2019-05-29T07:14:21.053Z,93.20
2019-05-29T07:16:55.914Z,93.60
2019-05-29T07:19:29.642Z,92.20
2019-05-29T07:21:52.072Z,93.60
2019-05-29T07:24:21.115Z,93.70
2019-05-29T07:26:50.297Z,92.60
2019-05-29T07:29:19.272Z,90.70
2019-05-29T07:31:48.272Z,91.40
2019-05-29T07:34:17.266Z,90.70
2019-05-29T07:36:46.206Z,89.60
2019-05-29T07:39:15.250Z,86.80
2019-05-29T07:41:44.361Z,84.40
2019-05-29T07:44:13.363Z,80.10
2019-05-29T07:46:42.388Z,75.80
2019-05-29T07:49:11.411Z,65.60
2019-05-29T07:51:40.626Z,64.10
2019-05-29T07:54:09.632Z,55.90
2019-05-29T07:56:38.564Z,53.80
2019-05-29T07:59:07.601Z,56.00
2019-05-29T08:01:36.865Z,55.80
2019-05-29T08:04:05.917Z,56.00
2019-05-29T08:06:35.113Z,54.90
2019-05-29T08:09:06.379Z,51.90
2019-05-29T08:11:35.391Z,44.50
2019-05-29T08:14:04.749Z,44.20
2019-05-29T08:16:33.808Z,43.80
2019-05-29T08:19:03.041Z,46.70
2019-05-29T08:21:31.974Z,46.00
2019-05-29T08:24:01.019Z,45.10
2019-05-29T08:26:29.967Z,41.60
2019-05-29T08:28:59.659Z,40.70
2019-05-29T08:31:28.695Z,43.80
2019-05-29T08:33:57.647Z,43.20
2019-05-29T08:36:26.673Z,37.30
2019-05-29T08:38:55.964Z,36.90
2019-05-29T08:41:24.990Z,35.50
2019-05-29T08:43:54.211Z,34.60
2019-05-29T08:46:23.243Z,36.70
2019-05-29T08:48:52.532Z,37.60
2019-05-29T08:51:22.026Z,37.30
2019-05-29T08:53:52.498Z,35.40
2019-05-29T08:56:22.448Z,35.30
2019-05-29T08:58:52.516Z,33.00
2019-05-29T09:01:21.738Z,35.10
2019-05-29T09:03:51.167Z,33.50
2019-05-29T09:06:20.997Z,33.20
2019-05-29T09:08:52.062Z,33.60
2019-05-29T09:11:21.115Z,30.50
2019-05-29T09:13:50.063Z,28.00
2019-05-29T09:16:19.048Z,31.10
2019-05-29T09:18:47.992Z,29.60
2019-05-29T09:21:17.978Z,31.30
2019-05-29T09:23:48.265Z,31.40
2019-05-29T09:26:22.246Z,32.20
2019-05-29T09:28:48.765Z,30.10
2019-05-29T09:31:18.683Z,31.00
2019-05-29T09:33:48.400Z,31.90
2019-05-29T09:36:18.620Z,33.60
2019-05-29T09:38:47.815Z,40.00
2019-05-29T09:41:17.391Z,36.10
2019-05-29T09:43:58.321Z,35.10
2019-05-29T09:46:18.816Z,34.20
2019-05-29T09:48:49.967Z,38.70
2019-05-29T09:51:21.649Z,39.60
2019-05-29T09:53:49.449Z,39.10
2019-05-29T09:56:18.607Z,36.00
2019-05-29T09:58:47.771Z,33.60
2019-05-29T10:01:23.524Z,33.30
2019-05-29T10:03:47.769Z,31.60
2019-05-29T10:06:16.808Z,32.50
2019-05-29T10:08:47.423Z,31.60
2019-05-29T10:11:16.549Z,32.80
2019-05-29T10:13:45.644Z,34.90
2019-05-29T10:16:14.773Z,35.80
2019-05-29T10:18:43.870Z,37.70
2019-05-29T10:21:12.842Z,38.20
2019-05-29T10:23:41.809Z,40.20
2019-05-29T10:26:11.012Z,40.30
2019-05-29T10:28:55.633Z,42.40
2019-05-29T10:31:11.221Z,44.00
2019-05-29T10:33:40.195Z,44.00
2019-05-29T10:36:09.253Z,42.40
2019-05-29T10:38:38.207Z,45.00
2019-05-29T10:41:07.565Z,44.90
2019-05-29T10:43:36.829Z,46.60
2019-05-29T10:46:05.940Z,49.00
2019-05-29T10:48:34.884Z,46.50
2019-05-29T10:51:03.929Z,46.90
2019-05-29T10:53:32.953Z,41.90
2019-05-29T10:56:02.318Z,44.30
2019-05-29T10:58:45.768Z,40.30
2019-05-29T11:01:02.244Z,43.00
2019-05-29T11:03:31.454Z,42.30
2019-05-29T11:06:00.596Z,41.00
2019-05-29T11:08:29.614Z,42.60
2019-05-29T11:10:58.579Z,42.80
2019-05-29T11:13:27.876Z,41.60
2019-05-29T11:15:56.960Z,45.10
2019-05-29T11:18:25.986Z,45.80
2019-05-29T11:20:55.463Z,43.70
2019-05-29T11:23:24.854Z,42.80
2019-05-29T11:25:54.039Z,44.20
2019-05-29T11:28:23.251Z,42.20
2019-05-29T11:30:53.598Z,43.00
2019-05-29T11:33:22.934Z,41.10
2019-05-29T11:36:03.295Z,43.30
2019-05-29T11:38:22.935Z,43.30
2019-05-29T11:41:03.795Z,46.20
2019-05-29T11:43:22.720Z,43.10
2019-05-29T11:45:53.085Z,45.20
2019-05-29T11:48:22.404Z,40.80
2019-05-29T11:50:52.135Z,43.30
2019-05-29T11:53:21.264Z,44.30
2019-05-29T11:55:52.361Z,42.10
2019-05-29T11:58:30.599Z,42.80
2019-05-29T12:00:52.907Z,41.50
2019-05-29T12:03:22.134Z,42.50
2019-05-29T12:05:51.644Z,42.30
2019-05-29T12:08:20.632Z,44.40
2019-05-29T12:10:49.667Z,43.70
2019-05-29T12:13:18.903Z,46.10
2019-05-29T12:15:48.030Z,43.10
2019-05-29T12:18:23.518Z,43.80
2019-05-29T12:20:47.931Z,42.00
2019-05-29T12:23:25.940Z,41.30
2019-05-29T12:25:47.903Z,41.50
2019-05-29T12:28:17.040Z,40.50
2019-05-29T12:30:45.980Z,39.10
2019-05-29T12:33:15.220Z,38.90
2019-05-29T12:35:50.064Z,40.60
2019-05-29T12:38:17.300Z,38.90
2019-05-29T12:40:46.252Z,42.00
2019-05-29T12:43:26.483Z,41.00
2019-05-29T12:45:46.204Z,44.00
2019-05-29T12:48:16.120Z,42.00
2019-05-29T12:50:45.805Z,43.80
2019-05-29T12:53:29.507Z,44.40
2019-05-29T12:55:45.545Z,46.60
2019-05-29T12:58:14.521Z,45.90
2019-05-29T13:00:43.536Z,45.00
2019-05-29T13:03:12.596Z,46.10
2019-05-29T13:05:41.536Z,45.20
2019-05-29T13:08:10.586Z,44.40
2019-05-29T13:10:39.677Z,42.10
2019-05-29T13:13:11.279Z,43.20
2019-05-29T13:15:39.517Z,41.90
2019-05-29T13:18:10.099Z,42.70
2019-05-29T13:20:39.332Z,41.00
2019-05-29T13:23:08.765Z,42.60
2019-05-29T13:25:37.664Z,44.30
2019-05-29T13:28:06.717Z,40.90
2019-05-29T13:30:35.765Z,42.00
2019-05-29T13:33:07.422Z,41.70
2019-05-29T13:35:36.353Z,41.50
2019-05-29T13:38:05.695Z,42.60
2019-05-29T13:40:34.743Z,41.00
2019-05-29T13:43:11.102Z,41.30
2019-05-29T13:45:34.610Z,41.60
2019-05-29T13:48:05.401Z,40.80
2019-05-29T13:50:43.828Z,41.80
2019-05-29T13:53:13.204Z,41.20
2019-05-29T13:55:42.297Z,41.80
2019-05-29T13:58:11.251Z,40.30
2019-05-29T14:00:40.334Z,42.30
2019-05-29T14:03:09.400Z,40.20
2019-05-29T14:05:38.293Z,41.60
2019-05-29T14:08:07.347Z,42.50
2019-05-29T14:10:36.304Z,43.80
2019-05-29T14:13:05.522Z,43.80
2019-05-29T14:15:34.477Z,46.10
2019-05-29T14:18:04.927Z,47.50
2019-05-29T14:20:34.118Z,45.80
2019-05-29T14:23:03.403Z,43.00
2019-05-29T14:25:32.718Z,43.00
2019-05-29T14:28:02.667Z,41.40
2019-05-29T14:31:00.116Z,41.10
2019-05-29T14:33:29.207Z,41.20
2019-05-29T14:35:58.151Z,42.20
2019-05-29T14:38:27.139Z,43.20
2019-05-29T14:40:56.076Z,46.40
2019-05-29T14:43:25.036Z,44.60
2019-05-29T14:45:53.986Z,47.30
2019-05-29T14:48:22.993Z,42.90
2019-05-29T14:50:51.947Z,42.50
2019-05-29T14:53:20.903Z,45.50
2019-05-29T14:55:49.909Z,41.70
2019-05-29T14:58:18.984Z,41.00
2019-05-29T15:00:48.028Z,43.20
2019-05-29T15:03:17.074Z,41.00
2019-05-29T15:05:46.054Z,40.80
2019-05-29T15:08:15.049Z,40.70
2019-05-29T15:10:44.363Z,41.60
2019-05-29T15:13:15.134Z,41.00
2019-05-29T15:15:44.261Z,42.10
2019-05-29T15:18:17.326Z,40.70
2019-05-29T15:20:43.861Z,42.80
2019-05-29T15:23:13.514Z,41.70
2019-05-29T15:25:42.867Z,42.00
2019-05-29T15:28:14.020Z,40.10
2019-05-29T15:30:42.525Z,39.40
2019-05-29T15:33:12.595Z,39.30
2019-05-29T15:35:42.176Z,40.00
2019-05-29T15:38:11.111Z,39.00
2019-05-29T15:40:40.083Z,41.00
2019-05-29T15:43:09.115Z,40.70
2019-05-29T15:45:38.209Z,41.20
2019-05-29T15:48:07.120Z,40.60
2019-05-29T15:50:36.144Z,38.80
2019-05-29T15:53:06.979Z,40.20
2019-05-29T15:55:36.359Z,40.60
2019-05-29T15:58:05.578Z,38.90
2019-05-29T16:00:34.611Z,42.10
2019-05-29T16:03:03.730Z,43.90
2019-05-29T16:05:32.697Z,41.00
2019-05-29T16:08:01.872Z,43.30
2019-05-29T16:10:31.081Z,41.30
2019-05-29T16:13:00.173Z,41.50
2019-05-29T16:15:29.184Z,40.50
2019-05-29T16:17:58.179Z,43.40
2019-05-29T16:20:28.019Z,43.00
2019-05-29T16:22:57.029Z,41.50
2019-05-29T16:25:39.390Z,42.10
2019-05-29T16:27:56.698Z,42.50
2019-05-29T16:30:25.827Z,41.90
2019-05-29T16:32:54.830Z,41.10
2019-05-29T16:35:24.205Z,40.80
2019-05-29T16:37:53.574Z,41.20
2019-05-29T16:40:24.176Z,44.10
2019-05-29T16:42:53.139Z,41.80
2019-05-29T16:45:22.558Z,41.60
2019-05-29T16:47:51.640Z,41.90
2019-05-29T16:50:21.276Z,42.00
2019-05-29T16:52:50.463Z,41.90
2019-05-29T16:55:19.541Z,41.00
2019-05-29T16:57:48.529Z,41.30
2019-05-29T17:00:19.984Z,42.00
2019-05-29T17:02:50.239Z,43.50
2019-05-29T17:05:20.546Z,41.80
2019-05-29T17:07:49.903Z,41.10
2019-05-29T17:10:20.387Z,42.70
2019-05-29T17:12:49.442Z,41.80
2019-05-29T17:15:18.932Z,42.80
2019-05-29T17:17:48.224Z,43.20
2019-05-29T17:20:21.315Z,43.50
2019-05-29T17:22:50.278Z,43.00
2019-05-29T17:25:20.649Z,43.20
2019-05-29T17:27:50.132Z,45.00
2019-05-29T17:30:23.069Z,44.00
2019-05-29T17:32:52.089Z,43.50
2019-05-29T17:35:21.239Z,43.80
2019-05-29T17:37:50.717Z,44.30
2019-05-29T17:40:21.172Z,44.10
2019-05-29T17:42:50.795Z,45.30
2019-05-29T17:45:23.910Z,46.50
2019-05-29T17:47:50.774Z,45.60
2019-05-29T17:50:22.906Z,46.00
2019-05-29T17:52:50.851Z,44.30
2019-05-29T17:55:21.832Z,46.80
2019-05-29T17:57:50.964Z,44.30
2019-05-29T18:00:22.525Z,45.60
2019-05-29T18:02:52.783Z,45.00
2019-05-29T18:05:22.671Z,48.40
2019-05-29T18:07:51.898Z,46.80
2019-05-29T18:10:22.498Z,48.20
2019-05-29T18:12:51.822Z,47.60
2019-05-29T18:15:21.621Z,48.50
2019-05-29T18:17:50.976Z,50.30
2019-05-29T18:20:21.693Z,48.00
2019-05-29T18:22:50.849Z,46.80
2019-05-29T18:25:19.943Z,47.80
2019-05-29T18:27:48.907Z,49.10
2019-05-29T18:30:18.235Z,47.70
2019-05-29T18:32:47.531Z,50.80
2019-05-29T18:35:16.680Z,48.40
2019-05-29T18:37:45.623Z,50.20
2019-05-29T18:40:15.830Z,48.40
2019-05-29T18:42:44.807Z,49.20
2019-05-29T18:45:20.913Z,48.80
2019-05-29T18:47:45.364Z,48.00
2019-05-29T18:50:14.652Z,48.90
2019-05-29T18:52:43.770Z,50.30
2019-05-29T18:55:13.066Z,49.90
2019-05-29T18:57:42.071Z,50.90
2019-05-29T19:00:11.843Z,50.90
2019-05-29T19:02:40.987Z,51.00
2019-05-29T19:05:10.433Z,51.80
2019-05-29T19:07:39.536Z,52.00
2019-05-29T19:10:10.611Z,52.30
2019-05-29T19:12:39.643Z,52.10
2019-05-29T19:15:09.420Z,52.00
2019-05-29T19:17:38.415Z,53.50
2019-05-29T19:20:08.711Z,52.60
2019-05-29T19:22:37.657Z,54.10
2019-05-29T19:25:07.162Z,54.30
2019-05-29T19:27:41.617Z,58.20
2019-05-29T19:30:07.134Z,58.60
2019-05-29T19:32:36.223Z,59.70
2019-05-29T19:35:05.851Z,59.10
2019-05-29T19:37:35.142Z,62.00
2019-05-29T19:40:04.627Z,63.30
2019-05-29T19:42:34.321Z,65.30
2019-05-29T19:45:03.416Z,65.40
2019-05-29T19:47:32.794Z,66.30
2019-05-29T19:50:02.186Z,70.10
2019-05-29T19:52:31.227Z,74.60
2019-05-29T19:55:00.183Z,77.40
2019-05-29T19:57:29.887Z,88.60
2019-05-29T19:59:59.969Z,92.90
2019-05-29T20:02:28.904Z,99.20
2019-05-29T20:04:58.115Z,99.90
2019-05-29T20:07:27.116Z,99.90
2019-05-29T20:09:56.088Z,99.90
2019-05-29T20:12:25.054Z,99.90
2019-05-29T20:14:54.485Z,99.90
2019-05-29T20:17:23.515Z,99.90
2019-05-29T20:19:52.495Z,99.90
2019-05-29T20:22:21.707Z,99.90
2019-05-29T20:24:50.675Z,99.90
2019-05-29T20:27:19.686Z,99.90
2019-05-29T20:29:48.651Z,99.90
2019-05-29T20:32:17.695Z,99.90
2019-05-29T20:34:47.019Z,99.90
2019-05-29T20:37:16.822Z,99.90
2019-05-29T20:39:45.823Z,99.90
2019-05-29T20:42:15.126Z,99.90
2019-05-29T20:44:44.187Z,99.90
2019-05-29T20:47:13.417Z,99.90
2019-05-29T20:49:42.746Z,99.90
2019-05-29T20:52:12.052Z,99.90
2019-05-29T20:54:41.813Z,99.90
2019-05-29T20:57:11.535Z,99.90
2019-05-29T20:59:42.176Z,99.90
2019-05-29T21:02:12.226Z,99.90
2019-05-29T21:04:42.682Z,99.90
2019-05-29T21:07:11.853Z,99.90
2019-05-29T21:09:41.181Z,99.90
2019-05-29T21:12:10.455Z,99.90
2019-05-29T21:14:39.734Z,99.90
2019-05-29T21:17:08.826Z,99.90
2019-05-29T21:19:38.221Z,99.90
2019-05-29T21:22:07.629Z,99.90
2019-05-29T21:24:36.596Z,99.90
2019-05-29T21:27:05.608Z,99.90
2019-05-29T21:29:35.162Z,99.90
2019-05-29T21:32:04.326Z,99.90
2019-05-29T21:34:33.379Z,99.90
2019-05-29T21:37:02.351Z,99.90
2019-05-29T21:39:31.312Z,99.90
2019-05-29T21:42:00.263Z,99.90
2019-05-29T21:44:29.536Z,99.90
2019-05-29T21:46:58.489Z,99.90
2019-05-29T21:49:31.013Z,99.90
2019-05-29T21:51:58.087Z,99.90
2019-05-29T21:54:27.406Z,99.90
2019-05-29T21:56:56.681Z,99.90
2019-05-29T21:59:25.691Z,99.90
2019-05-29T22:01:54.817Z,99.90
2019-05-29T22:04:23.755Z,99.90
2019-05-29T22:06:52.885Z,99.90
2019-05-29T22:09:21.986Z,99.90
2019-05-29T22:11:52.181Z,99.90
2019-05-29T22:14:21.413Z,99.90
2019-05-29T22:16:50.899Z,99.90
2019-05-29T22:19:20.087Z,99.90
2019-05-29T22:21:49.457Z,99.90
2019-05-29T22:24:18.460Z,99.90
2019-05-29T22:26:47.504Z,99.90
2019-05-29T22:29:18.479Z,99.90
2019-05-29T22:31:47.199Z,99.90
2019-05-29T22:34:16.127Z,99.90
2019-05-29T22:36:45.191Z,99.90
2019-05-29T22:39:14.307Z,99.90
2019-05-29T22:41:43.275Z,99.90
2019-05-29T22:44:12.312Z,99.90
2019-05-29T22:46:41.331Z,99.90
2019-05-29T22:49:10.289Z,99.90
2019-05-29T22:51:39.227Z,99.90
2019-05-29T22:54:08.248Z,99.90
2019-05-29T22:56:37.204Z,99.90
2019-05-29T22:59:06.175Z,99.90
2019-05-29T23:01:35.203Z,99.90
2019-05-29T23:04:04.608Z,99.90
2019-05-29T23:06:33.576Z,99.90
2019-05-29T23:09:02.647Z,99.90
2019-05-29T23:11:31.558Z,99.90
2019-05-29T23:14:00.895Z,99.90
2019-05-29T23:16:29.865Z,99.90
2019-05-29T23:18:59.207Z,99.90
2019-05-29T23:21:28.172Z,99.90
2019-05-29T23:23:57.504Z,99.90
2019-05-29T23:26:26.747Z,99.90
2019-05-29T23:28:56.839Z,99.90
2019-05-29T23:31:25.946Z,99.90
2019-05-29T23:33:54.887Z,99.90
2019-05-29T23:36:23.923Z,99.90
2019-05-29T23:38:53.243Z,99.90
2019-05-29T23:41:22.122Z,99.90
2019-05-29T23:43:51.127Z,99.90
2019-05-29T23:46:20.078Z,99.90
2019-05-29T23:48:49.039Z,99.90
2019-05-29T23:51:18.059Z,99.90
2019-05-29T23:53:46.987Z,99.90
2019-05-29T23:56:16.161Z,99.90
2019-05-29T23:58:45.115Z,99.90
